Time;durP1;ratioP1;P1;durP2;ratioP2;P2;SDS_P1;SDS_P2;PMS_P1;PMS_P2;Temp;Humidity;BMP_temperature;BMP_pressure;BME280_temperature;BME280_humidity;BME280_pressure;Samples;Min_cycle;Max_cycle;Signal;HPM_P1;HPM_P2
2023/08/08 00:00:56;;;;;;;6.50;2.60;;;;;;;-145.68;100.00;73721.66;10170660;29;20236;-68
2023/08/08 00:05:56;;;;;;;6.95;2.70;;;;;;;-145.68;100.00;73727.66;10170783;29;20287;-67
2023/08/08 00:10:56;;;;;;;8.48;2.65;;;;;;;-145.68;100.00;73709.69;10170540;29;20208;-67
2023/08/08 00:15:57;;;;;;;8.35;2.50;;;;;;;-145.68;100.00;73709.69;10170684;29;20237;-68
2023/08/08 00:20:57;;;;;;;7.43;2.38;;;;;;;-145.68;100.00;73723.66;10170560;29;20251;-68
2023/08/08 00:25:58;;;;;;;4.85;2.28;;;;;;;-145.68;100.00;73729.66;10171124;29;20232;-68
2023/08/08 00:30:58;;;;;;;12.52;2.97;;;;;;;-145.68;100.00;73747.66;10170412;29;20355;-67
2023/08/08 00:35:58;;;;;;;6.25;2.65;;;;;;;-145.68;100.00;73751.66;10170364;29;20228;-67
2023/08/08 00:40:59;;;;;;;9.00;2.70;;;;;;;-145.68;100.00;73739.66;10168906;29;20228;-68
2023/08/08 00:46:00;;;;;;;7.85;2.72;;;;;;;-145.68;100.00;73751.66;10169980;29;20715;-68
2023/08/08 00:51:00;;;;;;;7.80;2.60;;;;;;;-145.68;100.00;73753.66;10169127;29;20582;-68
2023/08/08 00:56:00;;;;;;;5.90;2.88;;;;;;;-145.68;100.00;73735.66;10153027;29;20303;-68
2023/08/08 01:01:01;;;;;;;8.98;2.80;;;;;;;-145.68;100.00;73731.66;10168190;29;20228;-67
2023/08/08 01:06:16;;;;;;;7.53;2.78;;;;;;;-145.68;100.00;73747.66;10168324;29;20304;-68
2023/08/08 01:11:17;;;;;;;6.03;2.83;;;;;;;-145.68;100.00;73757.66;10168601;29;20216;-67
2023/08/08 01:16:18;;;;;;;7.18;2.70;;;;;;;-145.68;100.00;73763.66;10173768;29;20216;-68
2023/08/08 01:21:19;;;;;;;4.97;2.75;;;;;;;-145.68;100.00;73743.66;10176385;29;20812;-67
2023/08/08 01:26:20;;;;;;;6.82;2.33;;;;;;;-145.68;100.00;73765.66;10176282;29;20225;-68
2023/08/08 01:31:21;;;;;;;7.75;2.58;;;;;;;-145.68;100.00;73769.63;10175070;29;20209;-67
2023/08/08 01:36:28;;;;;;;10.93;2.90;;;;;;;-145.68;100.00;73781.63;10175715;29;20236;-67
2023/08/08 01:41:30;;;;;;;4.20;2.30;;;;;;;-145.68;100.00;73779.63;10174518;29;20251;-67
2023/08/08 01:46:31;;;;;;;5.80;2.20;;;;;;;-145.68;100.00;73797.63;10174336;29;20247;-68
2023/08/08 01:51:31;;;;;;;11.60;2.80;;;;;;;-145.68;100.00;73795.63;10175515;29;20217;-68
2023/08/08 01:56:31;;;;;;;6.28;2.67;;;;;;;-145.68;100.00;73811.63;10175398;29;20291;-67
2023/08/08 02:01:33;;;;;;;4.70;2.60;;;;;;;-145.68;100.00;73811.63;10196988;29;20234;-67
2023/08/08 02:06:34;;;;;;;8.50;3.00;;;;;;;-145.68;100.00;73823.63;10197198;29;20720;-68
2023/08/08 02:11:34;;;;;;;5.17;2.37;;;;;;;-145.68;100.00;73825.63;10213944;29;20561;-67
2023/08/08 02:16:34;;;;;;;5.30;2.60;;;;;;;-145.68;100.00;73815.63;10213435;29;20239;-67
2023/08/08 02:21:35;;;;;;;6.03;2.40;;;;;;;-145.68;100.00;73847.59;10213144;29;20247;-67
2023/08/08 02:26:35;;;;;;;3.53;1.93;;;;;;;-145.68;100.00;73833.59;10211796;29;20228;-67
2023/08/08 02:31:40;;;;;;;7.80;2.77;;;;;;;-145.68;100.00;73841.59;10195533;29;20220;-67
2023/08/08 02:36:41;;;;;;;4.77;2.67;;;;;;;-145.68;100.00;73839.59;10195973;29;20316;-67
2023/08/08 02:41:42;;;;;;;7.77;2.37;;;;;;;-145.68;100.00;73851.59;10212807;29;20322;-67
2023/08/08 02:46:43;;;;;;;4.47;2.40;;;;;;;-145.68;100.00;73861.59;10195586;29;20228;-67
2023/08/08 02:51:43;;;;;;;6.23;2.70;;;;;;;-145.68;100.00;73879.59;10212597;29;20579;-67
2023/08/08 02:56:44;;;;;;;3.87;1.90;;;;;;;-145.68;100.00;73865.59;10195201;29;20306;-67
2023/08/08 03:01:47;;;;;;;7.23;2.73;;;;;;;-145.68;100.00;73863.59;10157103;29;20239;-67
2023/08/08 03:06:51;;;;;;;5.03;2.40;;;;;;;-145.68;100.00;73867.59;10194461;29;20239;-67
2023/08/08 03:11:51;;;;;;;3.63;2.50;;;;;;;-145.68;100.00;73875.59;10195310;29;20557;-67
2023/08/08 03:16:52;;;;;;;7.50;2.70;;;;;;;-145.68;100.00;73875.59;10194384;29;20228;-67
2023/08/08 03:21:52;;;;;;;7.37;2.67;;;;;;;-145.68;100.00;73885.56;10211379;29;20232;-67
2023/08/08 03:26:53;;;;;;;3.13;2.50;;;;;;;-145.68;100.00;73895.56;10193922;29;20727;-67
2023/08/08 03:31:54;;;;;;;7.33;2.80;;;;;;;-145.68;100.00;73887.56;10193923;29;20241;-67
2023/08/08 03:36:54;;;;;;;9.20;2.90;;;;;;;-145.68;100.00;73885.56;10193312;29;20235;-67
2023/08/08 03:41:56;;;;;;;5.47;2.97;;;;;;;-145.68;100.00;73887.56;10193511;29;20228;-67
2023/08/08 03:46:56;;;;;;;4.03;2.80;;;;;;;-145.68;100.00;73879.59;10210763;29;20227;-67
2023/08/08 03:51:58;;;;;;;3.73;2.33;;;;;;;-145.68;100.00;73863.59;10193524;29;20208;-67
2023/08/08 03:56:59;;;;;;;3.53;2.78;;;;;;;-145.68;100.00;73859.59;10193316;29;20711;-67
2023/08/08 04:01:59;;;;;;;3.30;2.30;;;;;;;-145.68;100.00;73847.59;10192943;29;20231;-67
2023/08/08 04:07:00;;;;;;;4.90;2.40;;;;;;;-145.68;100.00;73847.59;10210193;29;20220;-67
2023/08/08 04:12:00;;;;;;;3.07;2.17;;;;;;;-145.68;100.00;73823.63;10210049;29;20200;-68
2023/08/08 04:17:00;;;;;;;5.77;2.43;;;;;;;-145.68;100.00;73819.63;10209877;29;20235;-68
2023/08/08 04:22:01;;;;;;;4.40;2.60;;;;;;;-145.68;100.00;73815.63;10209955;29;20243;-68
2023/08/08 04:27:01;;;;;;;2.73;2.27;;;;;;;-145.68;100.00;73823.63;10209482;29;20290;-67
2023/08/08 04:32:02;;;;;;;6.97;2.40;;;;;;;-145.68;100.00;73791.63;10209849;29;20220;-68
2023/08/08 04:37:02;;;;;;;4.63;2.30;;;;;;;-145.68;100.00;73801.63;10209398;29;20726;-68
2023/08/08 04:42:03;;;;;;;4.80;2.40;;;;;;;-145.68;100.00;73783.63;10209722;29;20236;-68
2023/08/08 04:47:04;;;;;;;4.60;3.20;;;;;;;-145.68;100.00;73785.63;10209215;29;20874;-68
2023/08/08 04:52:05;;;;;;;4.63;2.40;;;;;;;-145.68;100.00;73767.66;10215990;29;20627;-68
2023/08/08 04:57:05;;;;;;;7.20;2.67;;;;;;;-145.68;100.00;73775.63;10216589;29;20323;-68
2023/08/08 05:02:06;;;;;;;5.83;2.30;;;;;;;-145.68;100.00;73779.63;10216384;29;20232;-68
2023/08/08 05:07:06;;;;;;;2.20;2.00;;;;;;;-145.68;100.00;73783.63;10203091;23;20244;-68
2023/08/08 05:12:07;;;;;;;6.17;3.23;;;;;;;-145.68;100.00;73809.63;10176665;29;20241;-68
2023/08/08 05:17:07;;;;;;;5.50;2.55;;;;;;;-145.68;100.00;73797.63;10145075;29;20724;-68
2023/08/08 05:22:07;;;;;;;4.47;2.30;;;;;;;-145.68;100.00;73771.63;10137328;29;20658;-70
2023/08/08 05:27:08;;;;;;;3.83;2.40;;;;;;;-145.68;100.00;73733.66;10137037;29;20241;-69
2023/08/08 05:32:08;;;;;;;5.07;2.20;;;;;;;-145.68;99.52;73679.69;10137234;29;20696;-69
2023/08/08 05:37:09;;;;;;;5.18;2.40;;;;;;;-145.68;95.44;73661.69;10136618;29;20236;-69
2023/08/08 05:42:09;;;;;;;3.97;2.40;;;;;;;-145.68;95.63;73665.69;10136737;29;20232;-69
2023/08/08 05:47:10;;;;;;;4.32;2.40;;;;;;;-145.68;94.34;73651.72;10170557;29;20229;-70
2023/08/08 05:52:10;;;;;;;2.85;2.22;;;;;;;-145.68;93.80;73675.69;10175314;29;20266;-70
2023/08/08 05:57:10;;;;;;;2.50;1.98;;;;;;;-145.68;95.01;73667.69;10175095;29;20730;-69
2023/08/08 06:02:11;;;;;;;6.50;2.13;;;;;;;-145.68;92.75;73659.69;10174657;29;20703;-68
2023/08/08 06:07:11;;;;;;;4.95;2.13;;;;;;;-145.68;90.38;73647.72;10174710;29;20599;-69
2023/08/08 06:12:12;;;;;;;3.58;2.35;;;;;;;-145.68;90.67;73645.72;10174548;29;20295;-69
2023/08/08 06:17:12;;;;;;;6.75;2.45;;;;;;;-145.68;88.33;73635.72;10174397;29;20295;-69
2023/08/08 06:22:12;;;;;;;4.35;1.83;;;;;;;-145.68;88.33;73635.72;10174071;29;20606;-69
2023/08/08 06:27:13;;;;;;;4.22;2.25;;;;;;;-145.68;88.72;73655.69;10173997;29;20581;-69
2023/08/08 06:32:14;;;;;;;4.90;1.88;;;;;;;-145.68;86.85;73647.72;10173760;29;20575;-69
2023/08/08 06:37:14;;;;;;;5.22;1.95;;;;;;;-145.68;87.04;73647.72;10173459;29;20232;-68
2023/08/08 06:42:14;;;;;;;8.45;2.45;;;;;;;-145.68;87.25;73647.72;10173274;29;20296;-69
2023/08/08 06:47:26;;;;;;;2.70;1.80;;;;;;;-145.68;86.31;73627.72;10156144;29;20228;-70
2023/08/08 06:52:26;;;;;;;4.45;2.10;;;;;;;-145.68;85.20;73629.72;10150985;29;20758;-68
2023/08/08 06:57:27;;;;;;;3.17;1.80;;;;;;;-145.68;83.81;73611.72;10171497;29;20677;-70
2023/08/08 07:02:27;;;;;;;8.00;2.38;;;;;;;-145.68;84.17;73617.72;10170643;29;20302;-70
2023/08/08 07:07:29;;;;;;;4.13;1.80;;;;;;;-145.68;82.22;73601.72;10170067;29;20238;-70
2023/08/08 07:12:29;;;;;;;3.92;2.03;;;;;;;-145.68;82.53;73591.75;10169075;29;20260;-70
2023/08/08 07:17:30;;;;;;;3.58;1.90;;;;;;;-145.68;83.29;73593.75;10169763;29;20228;-70
2023/08/08 07:22:30;;;;;;;3.90;1.95;;;;;;;-145.68;81.67;73583.75;10201375;29;20245;-70
2023/08/08 07:27:31;;;;;;;3.15;1.90;;;;;;;-145.68;83.86;73579.75;10203400;29;20303;-68
2023/08/08 07:32:31;;;;;;;4.15;1.95;;;;;;;-145.68;83.18;73611.72;10183572;29;20208;-67
2023/08/08 07:37:32;;;;;;;5.00;2.08;;;;;;;-145.68;91.36;73651.72;10169275;29;20220;-66
2023/08/08 07:42:33;;;;;;;3.15;2.00;;;;;;;-145.68;95.25;73675.69;10170314;29;20291;-67
2023/08/08 07:47:33;;;;;;;4.40;2.28;;;;;;;-145.68;97.97;73647.72;10165197;29;20243;-67
2023/08/08 07:52:34;;;;;;;5.43;1.92;;;;;;;-145.68;99.26;73595.75;10145727;29;20221;-67
2023/08/08 07:57:35;;;;;;;3.10;2.10;;;;;;;-145.68;92.49;73579.75;10152881;29;20291;-68
2023/08/08 08:02:36;;;;;;;2.47;1.80;;;;;;;-145.68;89.21;73559.75;10207538;29;20239;-68
2023/08/08 08:07:37;;;;;;;4.90;1.70;;;;;;;-145.68;88.41;73539.78;10187170;29;20315;-69
2023/08/08 08:12:38;;;;;;;2.13;1.90;;;;;;;-145.68;85.69;73515.78;10168099;29;20287;-69
2023/08/08 08:17:38;;;;;;;2.30;1.80;;;;;;;-145.68;81.21;73455.81;10168248;29;20247;-71
2023/08/08 08:22:38;;;;;;;3.90;1.75;;;;;;;-145.68;76.16;73457.81;10169595;29;20259;-69
2023/08/08 08:27:39;;;;;;;2.50;1.80;;;;;;;-145.68;76.11;73439.84;10174492;29;20336;-69
2023/08/08 08:32:40;;;;;;;5.82;1.90;;;;;;;-145.68;74.88;73371.88;10174484;29;20227;-70
2023/08/08 08:37:41;;;;;;;3.17;1.70;;;;;;;-145.68;71.53;73409.84;10174261;29;20231;-70
2023/08/08 08:42:41;;;;;;;2.38;1.60;;;;;;;-145.68;70.08;73403.84;10174947;29;20235;-70
2023/08/08 08:47:44;;;;;;;3.10;1.45;;;;;;;-145.68;68.78;73415.84;10196850;29;20239;-71
2023/08/08 08:52:44;;;;;;;3.70;1.30;;;;;;;-145.68;68.80;73363.88;10209133;29;20261;-71
2023/08/08 08:57:45;;;;;;;5.78;1.70;;;;;;;-145.68;67.38;73345.88;10174609;29;20252;-71
2023/08/08 09:02:46;;;;;;;4.93;1.50;;;;;;;-145.68;67.04;73375.88;10156982;29;20580;-69
2023/08/08 09:07:46;;;;;;;3.53;1.67;;;;;;;-145.68;68.13;73349.88;10156976;29;20240;-69
2023/08/08 09:12:47;;;;;;;2.00;1.70;;;;;;;-145.68;67.66;73353.88;10174693;29;20213;-70
2023/08/08 09:17:48;;;;;;;4.68;2.13;;;;;;;-145.68;68.27;73345.88;10193034;29;20304;-70
2023/08/08 09:22:48;;;;;;;3.47;2.00;;;;;;;-145.68;68.40;73323.91;10182469;29;20256;-69
2023/08/08 09:27:50;;;;;;;5.75;1.83;;;;;;;-145.68;67.25;73315.91;10177428;29;20233;-70
2023/08/08 09:32:51;;;;;;;4.03;2.00;;;;;;;-145.68;67.61;73347.88;10171499;29;20220;-70
2023/08/08 09:37:54;;;;;;;5.15;1.77;;;;;;;-145.68;66.26;73273.94;10172657;29;20620;-69
2023/08/08 09:42:56;;;;;;;2.70;1.90;;;;;;;-145.68;62.82;73156.00;10173040;29;20594;-71
2023/08/08 09:47:58;;;;;;;3.92;1.80;;;;;;;-145.68;61.39;73104.06;10172390;29;20658;-69
2023/08/08 09:52:59;;;;;;;3.65;1.88;;;;;;;-145.68;59.32;73066.09;10156235;29;20276;-69
2023/08/08 09:58:00;;;;;;;3.17;1.80;;;;;;;-145.68;59.83;73180.00;10155385;29;20244;-69
2023/08/08 10:03:00;;;;;;;3.60;1.80;;;;;;;-145.68;60.36;73243.97;10153174;29;20828;-68
2023/08/08 10:08:01;;;;;;;5.13;1.45;;;;;;;-145.68;59.61;73229.97;10154152;29;20239;-70
2023/08/08 10:13:01;;;;;;;4.47;1.88;;;;;;;-145.68;60.30;73257.94;10170620;29;20215;-70
2023/08/08 10:18:02;;;;;;;7.35;2.08;;;;;;;-145.68;60.97;73273.94;10182031;29;20371;-70
2023/08/08 10:23:03;;;;;;;4.65;2.03;;;;;;;-145.68;61.04;73313.91;10152916;29;20224;-70
2023/08/08 10:28:10;;;;;;;3.60;1.70;;;;;;;-145.68;60.71;73223.97;10170813;29;20229;-70
2023/08/08 10:33:20;;;;;;;6.15;1.60;;;;;;;-145.68;59.02;73142.03;10154726;29;20213;-70
2023/08/08 10:38:22;;;;;;;3.35;1.80;;;;;;;-145.68;57.08;73120.03;10169733;29;20584;-69
2023/08/08 10:43:28;;;;;;;4.90;1.80;;;;;;;-145.68;57.11;73092.06;10153910;29;20236;-68
2023/08/08 10:48:28;;;;;;;5.38;1.77;;;;;;;-145.68;57.59;73156.00;10170135;29;20232;-69
2023/08/08 10:53:29;;;;;;;2.88;1.73;;;;;;;-145.68;57.89;73112.03;10170290;29;20822;-69
2023/08/08 10:58:40;;;;;;;3.65;1.58;;;;;;;-145.68;57.72;73148.03;10169713;29;20295;-68
2023/08/08 11:03:41;;;;;;;14.40;2.22;;;;;;;-145.68;57.73;73120.03;10170334;29;20662;-69
2023/08/08 11:08:49;;;;;;;1.60;1.20;;;;;;;-145.68;57.05;73086.06;10445424;22;20636;-66
2023/08/08 11:13:52;;;;;;;2.25;1.50;;;;;;;-145.68;56.63;73034.09;10363720;28;20284;-67
2023/08/08 11:18:55;;;;;;;5.13;1.75;;;;;;;-145.68;56.39;73034.09;10401054;28;20287;-68
2023/08/08 11:23:57;;;;;;;2.95;1.63;;;;;;;-145.68;57.43;73056.09;10372515;28;20923;-68
2023/08/08 11:29:02;;;;;;;1.73;1.40;;;;;;;-145.68;56.08;73020.13;10362058;28;20213;-68
2023/08/08 11:34:04;;;;;;;2.20;1.35;;;;;;;-145.68;57.04;73016.13;10361420;28;20197;-67
2023/08/08 11:39:07;;;;;;;3.97;1.75;;;;;;;-145.68;54.89;72936.19;10360513;28;20280;-69
2023/08/08 11:44:08;;;;;;;1.88;1.75;;;;;;;-145.68;52.08;72918.19;10360118;28;20206;-66
2023/08/08 11:49:08;;;;;;;1.35;1.23;;;;;;;-145.68;49.82;72762.31;10354998;28;20938;-69
2023/08/08 11:54:09;;;;;;;4.93;1.60;;;;;;;-145.68;50.29;72804.28;10368700;28;20273;-67
2023/08/08 11:59:10;;;;;;;5.70;2.05;;;;;;;-145.68;48.85;72748.31;10381691;28;20208;-68
2023/08/08 12:04:11;;;;;;;2.95;1.50;;;;;;;-145.68;48.88;72802.28;10380599;28;20209;-68
2023/08/08 12:09:15;;;;;;;2.00;1.40;;;;;;;-145.68;49.76;72758.31;10401422;28;20320;-68
2023/08/08 12:14:15;;;;;;;3.90;1.65;;;;;;;-145.68;49.84;72676.38;10370733;28;20201;-67
2023/08/08 12:19:20;;;;;;;4.82;1.40;;;;;;;-145.68;48.05;72508.50;10339244;28;20312;-68
2023/08/08 12:24:21;;;;;;;2.03;1.40;;;;;;;-145.68;47.01;72522.50;10334228;28;20218;-67
2023/08/08 12:29:21;;;;;;;5.18;1.52;;;;;;;-145.68;47.18;72502.53;10333896;28;20214;-67
2023/08/08 12:34:22;;;;;;;4.30;1.55;;;;;;;-145.68;47.37;72548.47;10333920;28;20274;-67
2023/08/08 12:39:22;;;;;;;5.50;1.35;;;;;;;-145.68;47.65;72664.38;10333390;28;20225;-67
2023/08/08 12:44:23;;;;;;;3.25;1.60;;;;;;;-145.68;46.28;72788.28;10332623;28;20229;-67
2023/08/08 12:49:23;;;;;;;3.10;1.38;;;;;;;-145.68;47.17;72846.25;10336617;28;20252;-68
2023/08/08 12:54:23;;;;;;;4.05;1.52;;;;;;;-145.68;48.81;72912.19;10353462;28;20178;-67
2023/08/08 12:59:24;;;;;;;5.55;1.60;;;;;;;-145.68;50.99;72898.19;10352820;28;20217;-68
2023/08/08 13:04:25;;;;;;;1.85;1.50;;;;;;;-145.68;49.44;72720.34;10362547;28;20212;-68
2023/08/08 13:09:25;;;;;;;1.73;1.58;;;;;;;-145.68;47.42;72688.38;10372885;28;20251;-69
2023/08/08 13:14:26;;;;;;;1.80;1.13;;;;;;;-145.68;46.92;72608.44;10372935;28;20221;-69
2023/08/08 13:19:26;;;;;;;2.95;1.38;;;;;;;-145.68;46.41;72640.41;10335708;28;20268;-68
2023/08/08 13:24:26;;;;;;;3.33;1.60;;;;;;;-145.68;47.65;72748.31;10332535;28;20308;-69
2023/08/08 13:29:27;;;;;;;2.70;1.52;;;;;;;-145.68;48.05;72720.34;10331174;28;20264;-69
2023/08/08 13:34:27;;;;;;;2.22;1.33;;;;;;;-145.68;47.78;72750.31;10332275;28;20620;-68
2023/08/08 13:39:28;;;;;;;1.60;1.50;;;;;;;-145.68;48.07;72732.34;10327710;28;20224;-69
2023/08/08 13:44:28;;;;;;;4.00;1.25;;;;;;;-145.68;48.05;72778.28;10330322;28;20214;-69
2023/08/08 13:49:28;;;;;;;4.75;1.45;;;;;;;-145.68;47.17;72820.25;10329227;28;20304;-68
2023/08/08 13:54:29;;;;;;;4.32;1.38;;;;;;;-145.68;49.04;72854.25;10330466;28;20186;-68
2023/08/08 13:59:29;;;;;;;3.13;1.85;;;;;;;-145.68;49.65;72822.25;10331116;28;20221;-68
2023/08/08 14:04:30;;;;;;;3.13;1.58;;;;;;;-145.68;48.00;72790.28;10329063;28;20221;-69
2023/08/08 14:09:30;;;;;;;2.33;1.70;;;;;;;-145.68;47.28;72782.28;10330340;28;21018;-69
2023/08/08 14:14:30;;;;;;;4.45;1.55;;;;;;;-145.68;47.44;72752.31;10330497;28;20643;-68
2023/08/08 14:19:31;;;;;;;2.55;1.40;;;;;;;-145.68;46.49;72650.41;10330009;28;20229;-69
2023/08/08 14:24:31;;;;;;;1.88;1.20;;;;;;;-145.68;44.90;72670.38;10330409;28;20237;-69
2023/08/08 14:29:31;;;;;;;3.05;1.40;;;;;;;-145.68;46.04;72738.31;10330359;28;20217;-68
2023/08/08 14:34:33;;;;;;;1.70;1.42;;;;;;;-145.68;45.75;72764.31;10329373;28;20186;-69
2023/08/08 14:39:33;;;;;;;3.45;1.50;;;;;;;-145.68;45.68;72772.31;10328510;28;20206;-69
2023/08/08 14:44:34;;;;;;;1.38;1.27;;;;;;;-145.68;46.01;72782.28;10329920;28;20220;-69
2023/08/08 14:49:34;;;;;;;6.15;1.58;;;;;;;-145.68;46.11;72824.25;10328957;28;20224;-68
2023/08/08 14:54:35;;;;;;;1.98;1.48;;;;;;;-145.68;46.67;72832.25;10327788;28;20193;-69
2023/08/08 14:59:35;;;;;;;3.63;1.40;;;;;;;-145.68;46.61;72882.22;10328584;28;20200;-67
2023/08/08 15:04:36;;;;;;;2.22;1.80;;;;;;;-145.68;48.15;72916.19;10328458;28;20312;-67
2023/08/08 15:09:37;;;;;;;4.28;1.77;;;;;;;-145.68;48.27;72892.22;10328402;28;20242;-68
2023/08/08 15:14:37;;;;;;;4.13;1.80;;;;;;;-145.68;45.23;72676.38;10311439;28;20210;-68
2023/08/08 15:19:38;;;;;;;6.38;1.75;;;;;;;-145.68;45.08;72664.38;10289513;28;20596;-69
2023/08/08 15:24:38;;;;;;;4.00;2.78;;;;;;;-145.68;45.09;72748.31;10298582;28;20648;-69
2023/08/08 15:29:38;;;;;;;3.17;1.40;;;;;;;-145.68;46.24;72850.25;10329217;28;20261;-68
2023/08/08 15:34:39;;;;;;;3.05;1.80;;;;;;;-145.68;46.59;72874.22;10328069;28;20182;-68
2023/08/08 15:39:40;;;;;;;4.53;1.42;;;;;;;-145.68;47.56;72860.22;10328151;28;20268;-68
2023/08/08 15:44:40;;;;;;;2.58;1.65;;;;;;;-145.68;47.31;72928.19;10327623;28;20240;-67
2023/08/08 15:49:40;;;;;;;3.72;1.60;;;;;;;-145.68;47.91;72916.19;10333491;28;20591;-68
2023/08/08 15:54:41;;;;;;;3.40;1.52;;;;;;;-145.68;52.56;73036.09;10335412;28;20562;-67
2023/08/08 15:59:42;;;;;;;2.38;1.60;;;;;;;-145.68;60.63;73122.03;10351476;28;20540;-68
2023/08/08 16:04:42;;;;;;;4.75;1.73;;;;;;;-145.68;65.31;73200.00;10353581;28;20712;-67
2023/08/08 16:09:42;;;;;;;4.35;1.80;;;;;;;-145.68;66.93;73233.97;10355268;28;20197;-68
2023/08/08 16:14:43;;;;;;;3.58;2.10;;;;;;;-145.68;68.58;73247.97;10354427;28;20257;-67
2023/08/08 16:19:43;;;;;;;3.83;2.00;;;;;;;-145.68;69.33;73317.91;10356444;28;20197;-67
2023/08/08 16:24:44;;;;;;;3.33;1.90;;;;;;;-145.68;74.88;73349.88;10356284;28;20210;-67
2023/08/08 16:29:44;;;;;;;5.72;2.40;;;;;;;-145.68;77.61;73377.88;10353547;28;20998;-67
2023/08/08 16:34:45;;;;;;;7.43;2.22;;;;;;;-145.68;79.36;73423.84;10349645;28;20190;-68
2023/08/08 16:39:46;;;;;;;2.92;1.70;;;;;;;-145.68;83.86;73459.81;10356650;28;20209;-67
2023/08/08 16:44:47;;;;;;;3.40;1.83;;;;;;;-145.68;92.73;73503.78;10359742;28;20217;-67
2023/08/08 16:49:47;;;;;;;5.22;2.08;;;;;;;-145.68;100.00;73537.78;10377595;28;20668;-68
2023/08/08 16:54:47;;;;;;;5.30;2.25;;;;;;;-145.68;100.00;73543.78;10376600;28;20755;-68
2023/08/08 16:59:48;;;;;;;3.75;2.10;;;;;;;-145.68;100.00;73553.75;10364608;28;20664;-68
2023/08/08 17:04:49;;;;;;;2.67;2.17;;;;;;;-145.68;100.00;73551.75;10355158;28;21409;-68
2023/08/08 17:09:49;;;;;;;4.35;2.75;;;;;;;-145.68;100.00;73559.75;10374146;22;20233;-68
2023/08/08 17:14:50;;;;;;;3.70;2.45;;;;;;;-145.68;100.00;73559.75;10351942;28;20192;-67
2023/08/08 17:19:50;;;;;;;90.07;30.55;;;;;;;-145.68;100.00;73581.75;10351668;28;20664;-67
2023/08/08 17:24:50;;;;;;;4.43;2.80;;;;;;;-145.68;100.00;73575.75;10358213;28;20213;-67
2023/08/08 17:29:51;;;;;;;4.32;2.42;;;;;;;-145.68;100.00;73553.75;10352482;28;20210;-67
2023/08/08 17:34:51;;;;;;;3.95;2.30;;;;;;;-145.68;100.00;73535.78;10346098;28;20384;-67
2023/08/08 17:39:52;;;;;;;5.65;3.35;;;;;;;-145.68;100.00;73539.78;10351595;28;20217;-68
2023/08/08 17:44:52;;;;;;;6.00;3.30;;;;;;;-145.68;100.00;73519.78;10347172;28;20221;-68
2023/08/08 17:49:52;;;;;;;4.20;2.35;;;;;;;-145.68;100.00;73511.78;10349731;28;20235;-68
2023/08/08 17:54:53;;;;;;;4.85;2.20;;;;;;;-145.68;100.00;73501.78;10347870;28;20183;-68
2023/08/08 17:59:53;;;;;;;4.30;2.78;;;;;;;-145.68;100.00;73487.81;10349267;28;20213;-68
2023/08/08 18:04:54;;;;;;;5.45;2.58;;;;;;;-145.68;100.00;73487.81;10353364;28;20213;-69
2023/08/08 18:09:54;;;;;;;3.67;2.15;;;;;;;-145.68;100.00;73495.78;10370731;28;20919;-70
2023/08/08 18:14:55;;;;;;;2.70;1.95;;;;;;;-145.68;100.00;73503.78;10371051;28;20190;-68
2023/08/08 18:19:57;;;;;;;2.00;1.80;;;;;;;-145.68;100.00;73507.78;10371184;28;20278;-69
2023/08/08 18:24:57;;;;;;;4.30;2.40;;;;;;;-145.68;100.00;73509.78;10370953;28;20245;-69
2023/08/08 18:29:57;;;;;;;3.90;2.05;;;;;;;-145.68;100.00;73503.78;10370690;28;20304;-69
2023/08/08 18:34:58;;;;;;;4.20;2.20;;;;;;;-145.68;100.00;73517.78;10370535;28;20185;-69
2023/08/08 18:39:58;;;;;;;3.13;2.15;;;;;;;-145.68;100.00;73505.78;10370459;28;20296;-69
2023/08/08 18:44:58;;;;;;;7.60;2.00;;;;;;;-145.68;98.09;73503.78;10370329;28;20232;-69
2023/08/08 18:49:59;;;;;;;2.75;1.80;;;;;;;-145.68;98.37;73519.78;10370021;28;20767;-69
2023/08/08 18:54:59;;;;;;;2.72;1.92;;;;;;;-145.68;96.59;73519.78;10369789;28;20185;-69
2023/08/08 19:00:00;;;;;;;3.35;2.15;;;;;;;-145.68;96.54;73527.78;10369957;28;20220;-69
2023/08/08 19:05:00;;;;;;;5.10;2.00;;;;;;;-145.68;98.16;73543.78;10369150;28;20229;-69
2023/08/08 19:10:00;;;;;;;5.28;2.60;;;;;;;-145.68;100.00;73567.75;10369788;28;20229;-69
2023/08/08 19:15:01;;;;;;;7.60;2.25;;;;;;;-145.68;100.00;73579.75;10368277;28;20200;-70
2023/08/08 19:20:02;;;;;;;4.30;2.38;;;;;;;-145.68;100.00;73595.75;10344757;28;20748;-70
2023/08/08 19:25:02;;;;;;;2.72;2.13;;;;;;;-145.68;100.00;73597.75;10328355;28;20230;-71
2023/08/08 19:30:03;;;;;;;3.35;2.15;;;;;;;-145.68;100.00;73579.75;10335721;28;20205;-71
2023/08/08 19:35:04;;;;;;;2.65;2.13;;;;;;;-145.68;100.00;73567.75;10336628;28;20225;-69
2023/08/08 19:40:05;;;;;;;3.33;2.42;;;;;;;-145.68;100.00;73575.75;10335792;28;20214;-70
2023/08/08 19:45:06;;;;;;;3.67;2.28;;;;;;;-145.68;100.00;73543.78;10336486;28;20224;-69
2023/08/08 19:50:07;;;;;;;3.45;1.88;;;;;;;-145.68;96.11;73529.78;10336266;28;20585;-70
2023/08/08 19:55:08;;;;;;;3.40;2.50;;;;;;;-145.68;93.79;73525.78;10335870;28;20273;-70
2023/08/08 20:00:08;;;;;;;4.60;2.10;;;;;;;-145.68;90.96;73505.78;10335945;28;20225;-68
2023/08/08 20:05:15;;;;;;;3.63;2.72;;;;;;;-145.68;92.23;73513.78;10334892;28;20301;-69
2023/08/08 20:10:15;;;;;;;3.47;1.75;;;;;;;-145.68;90.81;73505.78;10335427;28;20237;-69
2023/08/08 20:15:15;;;;;;;4.40;3.25;;;;;;;-145.68;88.89;73491.81;10334366;28;20683;-68
2023/08/08 20:20:16;;;;;;;2.65;1.70;;;;;;;-145.68;88.38;73489.81;10335251;28;20214;-69
2023/08/08 20:25:16;;;;;;;3.25;1.63;;;;;;;-145.68;87.45;73473.81;10334929;28;20229;-69
2023/08/08 20:30:16;;;;;;;4.78;2.25;;;;;;;-145.68;87.10;73467.81;10335107;28;20210;-68
2023/08/08 20:35:17;;;;;;;3.58;2.33;;;;;;;-145.68;87.21;73467.81;10335085;28;20200;-68
2023/08/08 20:40:18;;;;;;;6.60;2.13;;;;;;;-145.68;86.03;73459.81;10333818;28;20699;-69
2023/08/08 20:45:19;;;;;;;3.63;2.65;;;;;;;-145.68;84.27;73445.81;10334386;28;20222;-69
2023/08/08 20:50:19;;;;;;;3.03;1.73;;;;;;;-145.68;81.71;73427.84;10334155;28;20214;-69
2023/08/08 20:55:20;;;;;;;2.40;2.00;;;;;;;-145.68;81.71;73433.84;10333054;28;20260;-72
2023/08/08 21:00:21;;;;;;;2.75;1.90;;;;;;;-145.68;79.76;73423.84;10333963;28;20209;-69
2023/08/08 21:05:21;;;;;;;5.90;2.40;;;;;;;-145.68;78.31;73415.84;10333397;28;20240;-70
2023/08/08 21:10:22;;;;;;;1.98;1.77;;;;;;;-145.68;76.75;73423.84;10333705;28;20237;-69
2023/08/08 21:15:22;;;;;;;4.15;2.45;;;;;;;-145.68;77.87;73437.84;10333608;28;20196;-70
2023/08/08 21:20:23;;;;;;;4.05;1.83;;;;;;;-145.68;77.35;73447.81;10333526;28;20198;-70
2023/08/08 21:25:23;;;;;;;10.82;3.95;;;;;;;-145.68;76.54;73441.81;10333115;28;20224;-69
2023/08/08 21:30:24;;;;;;;10.43;4.20;;;;;;;-145.68;78.28;73467.81;10333197;28;20221;-70
2023/08/08 21:35:24;;;;;;;5.15;2.10;;;;;;;-145.68;78.48;73487.81;10332758;28;20194;-69
2023/08/08 21:40:24;;;;;;;4.10;2.15;;;;;;;-145.68;80.24;73515.78;10332423;28;20218;-69
2023/08/08 21:45:25;;;;;;;2.92;2.05;;;;;;;-145.68;79.28;73499.78;10354863;28;20239;-69
2023/08/08 21:50:25;;;;;;;4.00;1.90;;;;;;;-145.68;79.63;73513.78;10341838;28;20688;-70
2023/08/08 21:55:25;;;;;;;3.42;2.00;;;;;;;-145.68;78.29;73501.78;10332132;28;20289;-70
2023/08/08 22:00:26;;;;;;;3.05;2.17;;;;;;;-145.68;79.08;73511.78;10331713;28;20216;-71
2023/08/08 22:05:26;;;;;;;5.50;1.90;;;;;;;-145.68;78.09;73501.78;10331193;28;20276;-71
2023/08/08 22:10:33;;;;;;;5.13;1.80;;;;;;;-145.68;78.69;73511.78;10331031;28;20242;-71
2023/08/08 22:15:34;;;;;;;4.88;2.13;;;;;;;-145.68;79.72;73531.78;10331127;28;20214;-71
2023/08/08 22:20:34;;;;;;;5.05;2.00;;;;;;;-145.68;79.89;73535.78;10331161;28;20242;-71
2023/08/08 22:25:35;;;;;;;4.22;2.53;;;;;;;-145.68;81.33;73561.75;10330755;28;20327;-71
2023/08/08 22:30:35;;;;;;;2.75;1.80;;;;;;;-145.68;80.53;73547.75;10330848;28;20244;-70
2023/08/08 22:35:36;;;;;;;3.47;1.90;;;;;;;-145.68;79.95;73553.75;10330691;28;20182;-70
2023/08/08 22:40:36;;;;;;;9.38;2.20;;;;;;;-145.68;80.32;73565.75;10330738;28;20340;-70